Ronnie Rogers — WDD2270 — position and weather

sailwx.info

Track history (hours):
 
Tides and Currents Weather Stations Pressure Air Temp Water Temp Dewpoint Dewpoint Depression Visibility Wind Speed Wind Dir Waves Ship Positions

Ronnie Rogers

Owner: Florida Marine Transporters, Inc., Mandeville, LA. More information available from US FCC via Universal Licensing System and Coast Guard Vessel Documentation Center.

Last reported at 2014-Sep-27 18:33 UTC. Time now 2014-Oct-02 08:38 UTC.
Position N 29°12' W 095°04'.

Length 29 m; draft 3 m.

Type: Towing. MMSI: 367113160.

Date/timePositionNaut miles runAvg speedWind from/ knotsBaromVisibWave heightAir tempDewpointWater temp
2014-Sep-27 18:33N 29°12' W 095°04'5 4.2
2014-Sep-27 17:27N 29°15' W 095°00'4 4.4
2014-Sep-27 16:33N 29°17' W 094°56'3 3.5
2014-Sep-27 15:33N 29°18' W 094°53'4 3.0
2014-Sep-27 14:23N 29°21' W 094°50'4 4.3
2014-Sep-27 13:30N 29°24' W 094°49'6 5.8
2014-Sep-27 12:33N 29°29' W 094°52'6 5.6
2014-Sep-27 11:33N 29°34' W 094°55'6 5.8
2014-Sep-27 10:33N 29°39' W 094°58'5 5.0
2014-Sep-27 09:32N 29°44' W 095°02'4 4.0
2014-Sep-27 08:33N 29°45' W 095°06'5 4.9
2014-Sep-27 07:32N 29°45' W 095°11'1 0.2
2014-Sep-27 02:32N 29°44' W 095°12'0 0.0
2014-Sep-27 01:26N 29°44' W 095°12'0 0.0
2014-Sep-27 00:33N 29°44' W 095°12'0 0.0
2014-Sep-26 23:33N 29°44' W 095°12'0 0.0
2014-Sep-26 22:33N 29°44' W 095°12'0 0.0
2014-Sep-26 21:33N 29°44' W 095°12'0 0.0
2014-Sep-26 20:33N 29°44' W 095°12'0 0.0
2014-Sep-26 19:33N 29°44' W 095°12'0 0.0
2014-Sep-26 18:33N 29°44' W 095°12'0 0.0
2014-Sep-26 17:33N 29°44' W 095°12'0 0.1
2014-Sep-26 15:26N 29°44' W 095°12'0 0.0
2014-Sep-26 14:23N 29°44' W 095°12'0 0.0
2014-Sep-26 12:26N 29°44' W 095°12'1 0.1
2014-Sep-26 03:14N 29°45' W 095°11'4 6.1
2014-Sep-26 02:33N 29°45' W 095°06'3 1.5
2014-Sep-26 00:13N 29°47' W 095°04'2 3.2
2014-Sep-25 23:33N 29°46' W 095°06'0 0.3
2014-Sep-25 22:33N 29°46' W 095°06'0 0.0
2014-Sep-25 21:32N 29°46' W 095°06'0 0.0
2014-Sep-25 20:33N 29°46' W 095°06'0 0.0
2014-Sep-25 19:33N 29°46' W 095°06'0 0.0
2014-Sep-25 18:30N 29°46' W 095°06'0 0.0
2014-Sep-25 17:33N 29°46' W 095°06'0 0.0
2014-Sep-25 16:33N 29°46' W 095°06'0 0.0
2014-Sep-25 15:33N 29°46' W 095°06'0 0.0
2014-Sep-25 14:29N 29°46' W 095°06'0 0.0
2014-Sep-25 13:33N 29°46' W 095°06'0 0.0
2014-Sep-25 12:32N 29°46' W 095°06'0 0.0
2014-Sep-25 03:31N 29°46' W 095°06'2 2.1
2014-Sep-25 02:33N 29°47' W 095°04'5 4.6
2014-Sep-25 01:33N 29°43' W 095°01'5 5.0
2014-Sep-25 00:33N 29°46' W 095°06'0 0.3
2014-Sep-24 23:33N 29°46' W 095°06'0 0.0
2014-Sep-24 22:28N 29°46' W 095°06'0 0.0
2014-Sep-24 21:33N 29°46' W 095°06'0 0.0
2014-Sep-24 20:33N 29°46' W 095°06'0 0.0
2014-Sep-24 19:32N 29°46' W 095°06'0 0.0
2014-Sep-24 18:26N 29°46' W 095°06'0 0.0
2014-Sep-24 17:32N 29°46' W 095°06'0 0.0
2014-Sep-24 16:33N 29°46' W 095°06'0 0.0
2014-Sep-24 15:33N 29°46' W 095°06'0 0.0
2014-Sep-24 14:33N 29°46' W 095°06'0 0.0
2014-Sep-24 13:32N 29°46' W 095°06'0 0.0
2014-Sep-24 12:33N 29°46' W 095°06'0 0.0
2014-Sep-24 09:32N 29°46' W 095°06'0 0.0
2014-Sep-24 08:32N 29°46' W 095°06'0 0.0
2014-Sep-24 07:32N 29°46' W 095°06'0 0.3
2014-Sep-24 06:28N 29°46' W 095°06'0 0.2
2014-Sep-24 04:30N 29°46' W 095°06'0 0.0
2014-Sep-24 03:29N 29°46' W 095°06'0 0.0
2014-Sep-24 02:28N 29°46' W 095°06'3 2.8
2014-Sep-24 01:33N 29°47' W 095°04'4 3.6
2014-Sep-24 00:30N 29°44' W 095°02'4 4.7
2014-Sep-23 23:33N 29°41' W 094°59'6 6.1
2014-Sep-23 22:33N 29°35' W 094°56'6 6.3
2014-Sep-23 21:33N 29°30' W 094°52'11 3.5
2014-Sep-23 18:17N 29°18' W 094°53'4 5.6
2014-Sep-23 17:33N 29°17' W 094°57'1 1.4
2014-Sep-23 16:33N 29°17' W 094°59'0 0.0
2014-Sep-23 15:32N 29°16' W 094°59'  
Track history (hours):
 
Tides and Currents Weather Stations Pressure Air Temp Water Temp Dewpoint Dewpoint Depression Visibility Wind Speed Wind Dir Waves Ship Positions

Ronnie Rogers

Owner: Florida Marine Transporters, Inc., Mandeville, LA. More information available from US FCC via Universal Licensing System and Coast Guard Vessel Documentation Center.

Last reported at 2014-Sep-27 18:33 UTC. Time now 2014-Oct-02 08:38 UTC.
Position N 29°12' W 095°04'.

Length 29 m; draft 3 m.

Type: Towing. MMSI: 367113160.

Date/timePositionNaut miles runAvg speedWind from/ knotsBaromVisibWave heightAir tempDewpointWater temp
2014-Sep-27 18:33N 29°12' W 095°04'5 4.2
2014-Sep-27 17:27N 29°15' W 095°00'4 4.4
2014-Sep-27 16:33N 29°17' W 094°56'3 3.5
2014-Sep-27 15:33N 29°18' W 094°53'4 3.0
2014-Sep-27 14:23N 29°21' W 094°50'4 4.3
2014-Sep-27 13:30N 29°24' W 094°49'6 5.8
2014-Sep-27 12:33N 29°29' W 094°52'6 5.6
2014-Sep-27 11:33N 29°34' W 094°55'6 5.8
2014-Sep-27 10:33N 29°39' W 094°58'5 5.0
2014-Sep-27 09:32N 29°44' W 095°02'4 4.0
2014-Sep-27 08:33N 29°45' W 095°06'5 4.9
2014-Sep-27 07:32N 29°45' W 095°11'1 0.2
2014-Sep-27 02:32N 29°44' W 095°12'0 0.0
2014-Sep-27 01:26N 29°44' W 095°12'0 0.0
2014-Sep-27 00:33N 29°44' W 095°12'0 0.0
2014-Sep-26 23:33N 29°44' W 095°12'0 0.0
2014-Sep-26 22:33N 29°44' W 095°12'0 0.0
2014-Sep-26 21:33N 29°44' W 095°12'0 0.0
2014-Sep-26 20:33N 29°44' W 095°12'0 0.0
2014-Sep-26 19:33N 29°44' W 095°12'0 0.0
2014-Sep-26 18:33N 29°44' W 095°12'0 0.0
2014-Sep-26 17:33N 29°44' W 095°12'0 0.1
2014-Sep-26 15:26N 29°44' W 095°12'0 0.0
2014-Sep-26 14:23N 29°44' W 095°12'0 0.0
2014-Sep-26 12:26N 29°44' W 095°12'1 0.1
2014-Sep-26 03:14N 29°45' W 095°11'4 6.1
2014-Sep-26 02:33N 29°45' W 095°06'3 1.5
2014-Sep-26 00:13N 29°47' W 095°04'2 3.2
2014-Sep-25 23:33N 29°46' W 095°06'0 0.3
2014-Sep-25 22:33N 29°46' W 095°06'0 0.0
2014-Sep-25 21:32N 29°46' W 095°06'0 0.0
2014-Sep-25 20:33N 29°46' W 095°06'0 0.0
2014-Sep-25 19:33N 29°46' W 095°06'0 0.0
2014-Sep-25 18:30N 29°46' W 095°06'0 0.0
2014-Sep-25 17:33N 29°46' W 095°06'0 0.0
2014-Sep-25 16:33N 29°46' W 095°06'0 0.0
2014-Sep-25 15:33N 29°46' W 095°06'0 0.0
2014-Sep-25 14:29N 29°46' W 095°06'0 0.0
2014-Sep-25 13:33N 29°46' W 095°06'0 0.0
2014-Sep-25 12:32N 29°46' W 095°06'0 0.0
2014-Sep-25 03:31N 29°46' W 095°06'2 2.1
2014-Sep-25 02:33N 29°47' W 095°04'5 4.6
2014-Sep-25 01:33N 29°43' W 095°01'5 5.0
2014-Sep-25 00:33N 29°46' W 095°06'0 0.3
2014-Sep-24 23:33N 29°46' W 095°06'0 0.0
2014-Sep-24 22:28N 29°46' W 095°06'0 0.0
2014-Sep-24 21:33N 29°46' W 095°06'0 0.0
2014-Sep-24 20:33N 29°46' W 095°06'0 0.0
2014-Sep-24 19:32N 29°46' W 095°06'0 0.0
2014-Sep-24 18:26N 29°46' W 095°06'0 0.0
2014-Sep-24 17:32N 29°46' W 095°06'0 0.0
2014-Sep-24 16:33N 29°46' W 095°06'0 0.0
2014-Sep-24 15:33N 29°46' W 095°06'0 0.0
2014-Sep-24 14:33N 29°46' W 095°06'0 0.0
2014-Sep-24 13:32N 29°46' W 095°06'0 0.0
2014-Sep-24 12:33N 29°46' W 095°06'0 0.0
2014-Sep-24 09:32N 29°46' W 095°06'0 0.0
2014-Sep-24 08:32N 29°46' W 095°06'0 0.0
2014-Sep-24 07:32N 29°46' W 095°06'0 0.3
2014-Sep-24 06:28N 29°46' W 095°06'0 0.2
2014-Sep-24 04:30N 29°46' W 095°06'0 0.0
2014-Sep-24 03:29N 29°46' W 095°06'0 0.0
2014-Sep-24 02:28N 29°46' W 095°06'3 2.8
2014-Sep-24 01:33N 29°47' W 095°04'4 3.6
2014-Sep-24 00:30N 29°44' W 095°02'4 4.7
2014-Sep-23 23:33N 29°41' W 094°59'6 6.1
2014-Sep-23 22:33N 29°35' W 094°56'6 6.3
2014-Sep-23 21:33N 29°30' W 094°52'11 3.5
2014-Sep-23 18:17N 29°18' W 094°53'4 5.6
2014-Sep-23 17:33N 29°17' W 094°57'1 1.4
2014-Sep-23 16:33N 29°17' W 094°59'0 0.0
2014-Sep-23 15:32N 29°16' W 094°59'  

Dump ship's entire track history